Albany, Minnesota
Current Conditions -  °F | °C
As of 12:52 AM on Thursday 27 Nov 2014 (Local Time) from KD39 Reporting Station
Clear Clear  
Wind Chill: -20°   Ceiling: Unl
Heat Index: -4°   Visibility: 10mi
Dew Point: -9°   Wind: 9mph
Humidity: 80%   Direction: 320°NW
Pressure: 30.47"   Gusts: NA
Location:  45.63°N, 94.57°W
Report Text: KD39 270652Z AUTO 32008KT 10SM CLR M20/M23 A3047 RMK AO2 T11991226
Loading
Personal Weather Stations






























Interactive Weather Map New forecast layout! Learn more

10-Day Weather Forecast

Advertisements
Track Severe Weather on mobile